createdAt,value
2024-04-08T11:37:40.285Z,4.22
2024-04-08T11:40:08.660Z,3.80
2024-04-08T11:42:35.686Z,4.80
2024-04-08T11:45:08.666Z,4.65
2024-04-08T11:47:37.929Z,3.25
2024-04-08T11:50:08.606Z,3.72
2024-04-08T11:52:36.224Z,4.32
2024-04-08T11:55:05.741Z,4.38
2024-04-08T11:57:33.544Z,5.43
2024-04-08T12:00:00.336Z,4.05
2024-04-08T12:02:27.138Z,4.13
2024-04-08T12:04:54.235Z,4.07
2024-04-08T12:07:20.996Z,4.07
2024-04-08T12:09:47.641Z,4.78
2024-04-08T12:12:14.970Z,4.95
2024-04-08T12:14:43.169Z,4.43
2024-04-08T12:19:36.964Z,4.75
2024-04-08T12:22:03.701Z,5.22
2024-04-08T12:24:30.393Z,4.75
2024-04-08T12:26:57.156Z,6.20
2024-04-08T12:29:24.150Z,5.38
2024-04-08T12:31:50.831Z,5.45
2024-04-08T12:34:17.525Z,4.72
2024-04-08T12:36:44.288Z,5.57
2024-04-08T12:39:10.987Z,5.93
2024-04-08T12:41:39.710Z,5.25
2024-04-08T12:44:08.541Z,5.28
2024-04-08T12:46:35.400Z,6.15
2024-04-08T12:49:02.453Z,5.53
2024-04-08T12:51:29.477Z,5.13
2024-04-08T12:53:57.228Z,6.60
2024-04-08T12:56:25.056Z,5.90
2024-04-08T12:58:58.132Z,4.95
2024-04-08T13:01:28.229Z,5.78
2024-04-08T13:03:56.167Z,6.07
2024-04-08T13:06:23.566Z,5.63
2024-04-08T13:08:51.201Z,6.07
2024-04-08T13:11:18.143Z,4.50
2024-04-08T13:13:47.122Z,5.85
2024-04-08T13:16:15.856Z,4.80
2024-04-08T13:18:44.171Z,5.00
2024-04-08T13:21:12.079Z,5.25
2024-04-08T13:23:40.199Z,4.63
2024-04-08T13:26:09.497Z,5.03
2024-04-08T13:28:36.179Z,6.00
2024-04-08T13:31:03.291Z,4.30
2024-04-08T13:33:30.201Z,5.43
2024-04-08T13:35:57.052Z,6.50
2024-04-08T13:38:23.961Z,5.03
2024-04-08T13:40:50.574Z,5.05
2024-04-08T13:43:17.334Z,5.03
2024-04-08T13:45:44.791Z,5.90
2024-04-08T13:48:12.120Z,4.68
2024-04-08T13:50:38.824Z,5.95
2024-04-08T13:53:05.896Z,5.20
2024-04-08T13:55:34.908Z,5.60
2024-04-08T13:58:03.949Z,6.30
2024-04-08T14:00:31.139Z,4.70
2024-04-08T14:02:59.186Z,5.95
2024-04-08T14:05:30.743Z,5.40
2024-04-08T14:07:57.855Z,6.20
2024-04-08T14:10:26.098Z,6.00
2024-04-08T14:12:54.498Z,5.43
2024-04-08T14:15:21.694Z,5.68
2024-04-08T14:17:48.591Z,5.50
2024-04-08T14:20:15.485Z,5.05
2024-04-08T14:23:01.994Z,5.72
2024-04-08T14:25:28.770Z,4.80
2024-04-08T14:27:56.032Z,4.72
2024-04-08T14:30:22.790Z,4.78
2024-04-08T14:32:50.173Z,4.18
2024-04-08T14:35:16.870Z,5.03
2024-04-08T14:38:00.938Z,5.13
2024-04-08T14:40:33.640Z,5.18
2024-04-08T14:43:09.985Z,5.47
2024-04-08T14:45:41.837Z,4.72
2024-04-08T14:48:09.339Z,5.97
2024-04-08T14:50:36.213Z,4.75
2024-04-08T14:53:03.290Z,5.05
2024-04-08T14:55:30.839Z,4.95
2024-04-08T14:57:57.945Z,4.25
2024-04-08T15:00:24.628Z,4.50
2024-04-08T15:02:51.507Z,5.15
2024-04-08T15:05:18.799Z,4.70
2024-04-08T15:07:46.080Z,6.57
2024-04-08T15:10:12.815Z,6.97
2024-04-08T15:12:41.457Z,4.22
2024-04-08T15:15:08.542Z,4.43
2024-04-08T15:17:35.992Z,5.40
2024-04-08T15:20:02.741Z,4.05
2024-04-08T15:22:29.397Z,5.72
2024-04-08T15:24:56.268Z,6.00
2024-04-08T15:27:23.003Z,4.45
2024-04-08T15:29:53.067Z,4.57
2024-04-08T15:32:22.048Z,4.32
2024-04-08T15:34:52.260Z,4.13
2024-04-08T15:37:19.031Z,4.32
2024-04-08T15:39:45.974Z,4.30
2024-04-08T15:42:12.860Z,4.85
2024-04-08T15:44:39.573Z,4.88
2024-04-08T15:47:06.433Z,4.72
2024-04-08T15:49:33.099Z,4.18
2024-04-08T15:52:00.831Z,3.90
2024-04-08T15:54:27.689Z,4.32
2024-04-08T15:56:54.589Z,4.82
2024-04-08T15:59:21.444Z,4.55
2024-04-08T16:01:48.819Z,3.20
2024-04-08T16:04:16.241Z,3.92
2024-04-08T16:06:43.398Z,3.78
2024-04-08T16:09:10.397Z,3.83
2024-04-08T16:11:37.641Z,4.22
2024-04-08T16:14:04.601Z,3.75
2024-04-08T16:16:31.334Z,3.95
2024-04-08T16:18:58.187Z,3.50
2024-04-08T16:21:25.853Z,3.47
2024-04-08T16:23:55.920Z,3.50
2024-04-08T16:26:24.664Z,2.95
2024-04-08T16:28:58.244Z,4.97
2024-04-08T16:31:31.085Z,4.13
2024-04-08T16:33:58.526Z,3.97
2024-04-08T16:36:28.874Z,3.75
2024-04-08T16:38:56.080Z,3.90
2024-04-08T16:41:23.062Z,4.50
2024-04-08T16:43:49.862Z,5.70
2024-04-08T16:46:17.292Z,5.43
2024-04-08T16:48:44.150Z,3.33
2024-04-08T16:51:10.991Z,3.90
2024-04-08T16:53:38.267Z,3.90
2024-04-08T16:56:05.284Z,3.17
2024-04-08T16:58:32.587Z,3.92
2024-04-08T17:00:59.421Z,4.50
2024-04-08T17:03:28.736Z,3.78
2024-04-08T17:06:06.819Z,4.00
2024-04-08T17:08:33.721Z,4.80
2024-04-08T17:11:04.959Z,4.20
2024-04-08T17:13:34.322Z,3.95
2024-04-08T17:16:01.196Z,4.32
2024-04-08T17:18:28.223Z,4.03
2024-04-08T17:20:58.946Z,3.40
2024-04-08T17:23:26.297Z,4.25
2024-04-08T17:25:53.572Z,3.45
2024-04-08T17:28:20.640Z,4.13
2024-04-08T17:30:54.746Z,4.05
2024-04-08T17:35:59.491Z,4.57
2024-04-08T17:38:30.022Z,5.30
2024-04-08T17:40:58.698Z,4.93
2024-04-08T17:43:28.801Z,8.73
2024-04-08T17:46:01.020Z,6.30
2024-04-08T17:48:32.225Z,4.47
2024-04-08T17:50:59.620Z,4.53
2024-04-08T17:53:29.481Z,4.80
2024-04-08T17:56:01.040Z,4.68
2024-04-08T17:58:29.110Z,4.20
2024-04-08T18:00:56.900Z,4.03
2024-04-08T18:03:23.731Z,3.97
2024-04-08T18:05:50.465Z,5.13
2024-04-08T18:08:36.018Z,4.57
2024-04-08T18:11:04.334Z,3.83
2024-04-08T18:13:31.358Z,4.30
2024-04-08T18:15:58.678Z,3.72
2024-04-08T18:18:26.851Z,4.22
2024-04-08T18:23:31.872Z,3.88
2024-04-08T18:25:59.838Z,3.65
2024-04-08T18:28:27.697Z,4.32
2024-04-08T18:31:05.752Z,3.75
2024-04-08T18:33:32.854Z,3.70
2024-04-08T18:36:00.875Z,3.65
2024-04-08T18:38:32.133Z,3.42
2024-04-08T18:41:03.994Z,4.05
2024-04-08T18:43:34.972Z,3.75
2024-04-08T18:46:03.830Z,4.22
2024-04-08T18:48:31.611Z,3.85
2024-04-08T18:50:58.756Z,4.10
2024-04-08T18:53:25.581Z,4.50
2024-04-08T18:55:52.579Z,3.70
2024-04-08T18:58:19.599Z,4.20
2024-04-08T19:00:46.426Z,3.83
2024-04-08T19:03:13.384Z,3.90
2024-04-08T19:05:41.239Z,4.68
2024-04-08T19:08:07.907Z,3.65
2024-04-08T19:10:34.917Z,4.25
2024-04-08T19:13:01.679Z,4.15
2024-04-08T19:15:28.854Z,4.40
2024-04-08T19:17:55.827Z,4.03
2024-04-08T19:20:23.273Z,4.07
2024-04-08T19:22:50.492Z,3.95
2024-04-08T19:25:17.404Z,4.70
2024-04-08T19:27:44.297Z,4.65
2024-04-08T19:30:11.415Z,3.53
2024-04-08T19:32:38.186Z,4.35
2024-04-08T19:35:05.352Z,4.07
2024-04-08T19:37:32.321Z,4.75
2024-04-08T19:39:59.162Z,4.90
2024-04-08T19:42:25.993Z,4.03
2024-04-08T19:44:56.062Z,4.35
2024-04-08T19:47:24.746Z,4.65
2024-04-08T19:49:52.331Z,2.92
2024-04-08T19:52:19.213Z,4.03
2024-04-08T19:54:46.280Z,3.80
2024-04-08T19:57:13.014Z,5.00
2024-04-08T19:59:39.799Z,4.53
2024-04-08T20:02:07.105Z,3.85
2024-04-08T20:04:34.020Z,4.32
2024-04-08T20:07:00.769Z,3.80
2024-04-08T20:09:27.583Z,4.55
2024-04-08T20:11:55.328Z,5.30
2024-04-08T20:14:22.156Z,4.63
2024-04-08T20:16:50.534Z,3.42
2024-04-08T20:19:17.574Z,4.18
2024-04-08T20:21:44.496Z,3.80
2024-04-08T20:24:11.660Z,3.53
2024-04-08T20:26:38.329Z,3.90
2024-04-08T20:29:05.121Z,3.90
2024-04-08T20:31:31.820Z,4.53
2024-04-08T20:34:00.575Z,3.88
2024-04-08T20:36:28.533Z,4.63
2024-04-08T20:38:55.290Z,3.17
2024-04-08T20:41:22.556Z,3.78
2024-04-08T20:43:49.205Z,4.53
2024-04-08T20:46:15.883Z,4.07
2024-04-08T20:48:43.512Z,3.88
2024-04-08T20:51:10.377Z,4.75
2024-04-08T20:53:37.201Z,3.70
2024-04-08T20:56:08.813Z,4.35
2024-04-08T20:58:35.843Z,3.45
2024-04-08T21:01:10.191Z,4.00
2024-04-08T21:03:38.467Z,3.47
2024-04-08T21:08:34.102Z,3.83
2024-04-08T21:11:02.319Z,4.70
2024-04-08T21:13:31.299Z,3.92
2024-04-08T21:15:59.604Z,3.15
2024-04-08T21:20:59.843Z,3.13
2024-04-08T21:23:26.963Z,2.80
2024-04-08T21:25:53.609Z,3.65
2024-04-08T21:28:20.304Z,2.80
2024-04-08T21:30:50.565Z,3.78
2024-04-08T21:33:17.354Z,3.67
2024-04-08T21:35:54.764Z,3.33
2024-04-08T21:38:21.559Z,3.03
2024-04-08T21:40:59.027Z,4.78
2024-04-08T21:43:27.311Z,3.83
2024-04-08T21:45:55.357Z,3.15
2024-04-08T21:48:22.242Z,3.25
2024-04-08T21:50:50.392Z,3.53
2024-04-08T21:53:18.065Z,3.10
2024-04-08T21:56:00.220Z,3.55
2024-04-08T21:58:28.248Z,2.63
2024-04-08T22:00:56.675Z,3.17
2024-04-08T22:03:25.832Z,2.80
2024-04-08T22:05:52.866Z,2.65
2024-04-08T22:08:20.032Z,3.20
2024-04-08T22:10:47.141Z,3.17
2024-04-08T22:13:13.827Z,3.35
2024-04-08T22:15:40.635Z,2.70
2024-04-08T22:18:10.179Z,3.05
2024-04-08T22:20:39.456Z,3.13
2024-04-08T22:23:07.449Z,3.80
2024-04-08T22:25:35.694Z,3.67
2024-04-08T22:28:03.085Z,3.00
2024-04-08T22:30:29.874Z,2.95
2024-04-08T22:32:56.771Z,3.15
2024-04-08T22:35:23.571Z,3.10
2024-04-08T22:37:51.176Z,2.92
2024-04-08T22:40:17.919Z,2.95
2024-04-08T22:42:44.646Z,2.20
2024-04-08T22:45:11.661Z,3.08
2024-04-08T22:47:38.600Z,2.33
2024-04-08T22:50:05.559Z,2.90
2024-04-08T22:52:32.633Z,2.63
2024-04-08T22:54:59.252Z,2.05
2024-04-08T22:57:26.033Z,4.03
2024-04-08T22:59:52.888Z,2.75
2024-04-08T23:02:19.753Z,2.97
2024-04-08T23:04:47.804Z,2.47
2024-04-08T23:07:14.726Z,2.30
2024-04-08T23:09:41.820Z,2.97
2024-04-08T23:12:08.780Z,2.38
2024-04-08T23:14:35.440Z,3.88
2024-04-08T23:17:03.534Z,4.28
2024-04-08T23:19:30.423Z,2.45
2024-04-08T23:21:57.129Z,3.30
2024-04-08T23:24:23.933Z,2.88
2024-04-08T23:26:50.773Z,2.08
2024-04-08T23:29:19.378Z,2.90
2024-04-08T23:31:47.299Z,2.50
2024-04-08T23:34:14.118Z,1.95
2024-04-08T23:36:41.131Z,2.00
2024-04-08T23:39:08.337Z,2.03
2024-04-08T23:41:35.172Z,2.28
2024-04-08T23:44:01.959Z,2.67
2024-04-08T23:46:28.916Z,2.40
2024-04-08T23:48:55.703Z,2.53
2024-04-08T23:51:22.948Z,3.30
2024-04-08T23:53:49.699Z,2.10
2024-04-08T23:56:16.397Z,3.05
2024-04-08T23:58:43.084Z,2.70
